sensor_id;sensor_type;location;lat;lon;timestamp;P1;durP1;ratioP1;P2;durP2;ratioP2
3597;SDS011;1813;52.016;8.714;2023-02-18T00:01:10;25.97;;;3.73;;
3597;SDS011;1813;52.016;8.714;2023-02-18T00:03:45;16.53;;;3.80;;
3597;SDS011;1813;52.016;8.714;2023-02-18T00:06:19;15.90;;;3.90;;
3597;SDS011;1813;52.016;8.714;2023-02-18T00:08:56;16.23;;;4.80;;
3597;SDS011;1813;52.016;8.714;2023-02-18T00:11:32;16.60;;;5.10;;
3597;SDS011;1813;52.016;8.714;2023-02-18T00:14:09;18.13;;;6.17;;
3597;SDS011;1813;52.016;8.714;2023-02-18T00:16:48;22.17;;;7.03;;
3597;SDS011;1813;52.016;8.714;2023-02-18T00:19:22;19.60;;;7.40;;
3597;SDS011;1813;52.016;8.714;2023-02-18T00:21:56;20.53;;;7.40;;
3597;SDS011;1813;52.016;8.714;2023-02-18T00:24:30;19.30;;;8.27;;
3597;SDS011;1813;52.016;8.714;2023-02-18T00:27:04;25.23;;;9.67;;
3597;SDS011;1813;52.016;8.714;2023-02-18T00:29:38;26.03;;;10.37;;
3597;SDS011;1813;52.016;8.714;2023-02-18T00:32:15;26.60;;;12.20;;
3597;SDS011;1813;52.016;8.714;2023-02-18T00:34:48;33.43;;;13.43;;
3597;SDS011;1813;52.016;8.714;2023-02-18T00:37:24;33.33;;;14.73;;
3597;SDS011;1813;52.016;8.714;2023-02-18T00:39:58;34.73;;;15.80;;
3597;SDS011;1813;52.016;8.714;2023-02-18T00:42:33;43.37;;;19.03;;
3597;SDS011;1813;52.016;8.714;2023-02-18T00:45:07;45.43;;;17.50;;
3597;SDS011;1813;52.016;8.714;2023-02-18T00:47:44;50.53;;;20.43;;
3597;SDS011;1813;52.016;8.714;2023-02-18T00:50:18;39.93;;;22.40;;
3597;SDS011;1813;52.016;8.714;2023-02-18T00:52:52;42.97;;;22.63;;
3597;SDS011;1813;52.016;8.714;2023-02-18T00:55:29;50.00;;;24.03;;
3597;SDS011;1813;52.016;8.714;2023-02-18T00:58:04;44.63;;;23.07;;
3597;SDS011;1813;52.016;8.714;2023-02-18T01:00:38;51.63;;;24.50;;
3597;SDS011;1813;52.016;8.714;2023-02-18T01:03:15;58.53;;;25.80;;
3597;SDS011;1813;52.016;8.714;2023-02-18T01:05:49;61.47;;;25.90;;
3597;SDS011;1813;52.016;8.714;2023-02-18T01:08:23;49.03;;;24.67;;
3597;SDS011;1813;52.016;8.714;2023-02-18T01:10:57;58.90;;;24.60;;
3597;SDS011;1813;52.016;8.714;2023-02-18T01:13:32;58.13;;;25.30;;
3597;SDS011;1813;52.016;8.714;2023-02-18T01:16:06;48.43;;;25.03;;
3597;SDS011;1813;52.016;8.714;2023-02-18T01:18:43;50.37;;;26.30;;
3597;SDS011;1813;52.016;8.714;2023-02-18T01:21:17;49.10;;;24.63;;
3597;SDS011;1813;52.016;8.714;2023-02-18T01:23:51;48.13;;;24.37;;
3597;SDS011;1813;52.016;8.714;2023-02-18T01:26:25;55.87;;;25.00;;
3597;SDS011;1813;52.016;8.714;2023-02-18T01:28:58;51.20;;;24.90;;
3597;SDS011;1813;52.016;8.714;2023-02-18T01:31:32;44.70;;;24.53;;
3597;SDS011;1813;52.016;8.714;2023-02-18T01:34:11;53.20;;;26.77;;
3597;SDS011;1813;52.016;8.714;2023-02-18T01:36:46;54.77;;;26.77;;
3597;SDS011;1813;52.016;8.714;2023-02-18T01:39:21;63.03;;;27.90;;
3597;SDS011;1813;52.016;8.714;2023-02-18T01:41:58;57.33;;;28.00;;
3597;SDS011;1813;52.016;8.714;2023-02-18T01:44:32;64.70;;;30.63;;
3597;SDS011;1813;52.016;8.714;2023-02-18T01:47:06;67.17;;;31.20;;
3597;SDS011;1813;52.016;8.714;2023-02-18T01:49:43;63.50;;;31.07;;
3597;SDS011;1813;52.016;8.714;2023-02-18T01:52:21;61.50;;;30.03;;
3597;SDS011;1813;52.016;8.714;2023-02-18T01:55:01;62.60;;;30.17;;
3597;SDS011;1813;52.016;8.714;2023-02-18T01:57:36;63.47;;;31.50;;
3597;SDS011;1813;52.016;8.714;2023-02-18T02:00:12;71.70;;;31.83;;
3597;SDS011;1813;52.016;8.714;2023-02-18T02:02:51;63.43;;;32.70;;
3597;SDS011;1813;52.016;8.714;2023-02-18T02:05:29;65.47;;;32.83;;
3597;SDS011;1813;52.016;8.714;2023-02-18T02:08:04;61.70;;;31.13;;
3597;SDS011;1813;52.016;8.714;2023-02-18T02:10:43;70.80;;;33.80;;
3597;SDS011;1813;52.016;8.714;2023-02-18T02:13:29;65.17;;;34.33;;
3597;SDS011;1813;52.016;8.714;2023-02-18T02:16:16;74.93;;;35.63;;
3597;SDS011;1813;52.016;8.714;2023-02-18T02:19:02;73.50;;;35.53;;
3597;SDS011;1813;52.016;8.714;2023-02-18T02:25:11;76.93;;;36.73;;
3597;SDS011;1813;52.016;8.714;2023-02-18T02:27:58;74.53;;;36.73;;
3597;SDS011;1813;52.016;8.714;2023-02-18T02:31:05;69.53;;;36.07;;
3597;SDS011;1813;52.016;8.714;2023-02-18T02:37:11;82.23;;;37.97;;
3597;SDS011;1813;52.016;8.714;2023-02-18T02:39:52;72.40;;;36.93;;
3597;SDS011;1813;52.016;8.714;2023-02-18T02:42:39;71.77;;;37.73;;
3597;SDS011;1813;52.016;8.714;2023-02-18T02:45:23;81.93;;;38.17;;
3597;SDS011;1813;52.016;8.714;2023-02-18T02:48:11;84.50;;;38.37;;
3597;SDS011;1813;52.016;8.714;2023-02-18T02:50:55;75.43;;;37.77;;
3597;SDS011;1813;52.016;8.714;2023-02-18T02:53:41;82.70;;;38.30;;
3597;SDS011;1813;52.016;8.714;2023-02-18T02:56:16;81.30;;;38.07;;
3597;SDS011;1813;52.016;8.714;2023-02-18T02:58:57;72.73;;;38.70;;
3597;SDS011;1813;52.016;8.714;2023-02-18T03:01:43;78.50;;;39.27;;
3597;SDS011;1813;52.016;8.714;2023-02-18T03:04:31;79.27;;;37.93;;
3597;SDS011;1813;52.016;8.714;2023-02-18T03:10:38;76.30;;;37.50;;
3597;SDS011;1813;52.016;8.714;2023-02-18T03:13:25;77.17;;;37.43;;
3597;SDS011;1813;52.016;8.714;2023-02-18T03:16:09;76.67;;;37.97;;
3597;SDS011;1813;52.016;8.714;2023-02-18T03:18:50;70.37;;;35.70;;
3597;SDS011;1813;52.016;8.714;2023-02-18T03:21:34;71.70;;;36.90;;
3597;SDS011;1813;52.016;8.714;2023-02-18T03:24:15;74.40;;;37.63;;
3597;SDS011;1813;52.016;8.714;2023-02-18T03:26:57;72.97;;;36.30;;
3597;SDS011;1813;52.016;8.714;2023-02-18T03:29:35;71.90;;;38.30;;
3597;SDS011;1813;52.016;8.714;2023-02-18T03:32:09;75.40;;;36.83;;
3597;SDS011;1813;52.016;8.714;2023-02-18T03:34:50;70.47;;;35.90;;
3597;SDS011;1813;52.016;8.714;2023-02-18T03:37:36;72.33;;;36.70;;
3597;SDS011;1813;52.016;8.714;2023-02-18T03:40:14;78.83;;;34.27;;
3597;SDS011;1813;52.016;8.714;2023-02-18T03:42:53;68.73;;;33.00;;
3597;SDS011;1813;52.016;8.714;2023-02-18T03:45:26;60.07;;;30.17;;
3597;SDS011;1813;52.016;8.714;2023-02-18T03:48:01;61.17;;;31.00;;
3597;SDS011;1813;52.016;8.714;2023-02-18T03:50:35;61.17;;;29.77;;
3597;SDS011;1813;52.016;8.714;2023-02-18T03:53:10;57.67;;;29.27;;
3597;SDS011;1813;52.016;8.714;2023-02-18T03:55:44;57.20;;;29.07;;
3597;SDS011;1813;52.016;8.714;2023-02-18T03:58:22;61.77;;;29.00;;
3597;SDS011;1813;52.016;8.714;2023-02-18T04:00:55;55.43;;;27.43;;
3597;SDS011;1813;52.016;8.714;2023-02-18T04:03:29;55.93;;;27.10;;
3597;SDS011;1813;52.016;8.714;2023-02-18T04:06:04;52.80;;;26.50;;
3597;SDS011;1813;52.016;8.714;2023-02-18T04:08:38;54.43;;;25.07;;
3597;SDS011;1813;52.016;8.714;2023-02-18T04:11:12;46.80;;;23.63;;
3597;SDS011;1813;52.016;8.714;2023-02-18T04:13:50;45.43;;;21.23;;
3597;SDS011;1813;52.016;8.714;2023-02-18T04:16:24;37.47;;;19.97;;
3597;SDS011;1813;52.016;8.714;2023-02-18T04:18:58;41.00;;;20.43;;
3597;SDS011;1813;52.016;8.714;2023-02-18T04:21:32;40.17;;;20.87;;
3597;SDS011;1813;52.016;8.714;2023-02-18T04:24:06;40.60;;;19.90;;
3597;SDS011;1813;52.016;8.714;2023-02-18T04:26:40;39.97;;;20.70;;
3597;SDS011;1813;52.016;8.714;2023-02-18T04:29:17;41.60;;;21.13;;
3597;SDS011;1813;52.016;8.714;2023-02-18T04:31:51;41.20;;;20.37;;
3597;SDS011;1813;52.016;8.714;2023-02-18T04:34:25;41.80;;;20.43;;
3597;SDS011;1813;52.016;8.714;2023-02-18T04:36:58;38.00;;;18.90;;
3597;SDS011;1813;52.016;8.714;2023-02-18T04:39:32;44.20;;;19.57;;
3597;SDS011;1813;52.016;8.714;2023-02-18T04:42:06;42.43;;;20.10;;
3597;SDS011;1813;52.016;8.714;2023-02-18T04:44:42;44.57;;;20.23;;
3597;SDS011;1813;52.016;8.714;2023-02-18T04:47:16;48.97;;;22.40;;
3597;SDS011;1813;52.016;8.714;2023-02-18T04:49:50;53.40;;;24.20;;
3597;SDS011;1813;52.016;8.714;2023-02-18T04:52:24;52.63;;;24.77;;
3597;SDS011;1813;52.016;8.714;2023-02-18T04:54:58;60.53;;;26.50;;
3597;SDS011;1813;52.016;8.714;2023-02-18T04:57:32;65.10;;;28.33;;
3597;SDS011;1813;52.016;8.714;2023-02-18T05:00:10;78.10;;;31.40;;
3597;SDS011;1813;52.016;8.714;2023-02-18T05:02:48;82.17;;;32.50;;
3597;SDS011;1813;52.016;8.714;2023-02-18T05:05:22;89.70;;;34.80;;
3597;SDS011;1813;52.016;8.714;2023-02-18T05:07:55;91.87;;;36.40;;
3597;SDS011;1813;52.016;8.714;2023-02-18T05:10:29;93.67;;;35.90;;
3597;SDS011;1813;52.016;8.714;2023-02-18T05:13:03;100.40;;;37.00;;
3597;SDS011;1813;52.016;8.714;2023-02-18T05:15:39;96.33;;;36.80;;
3597;SDS011;1813;52.016;8.714;2023-02-18T05:18:13;90.27;;;35.27;;
3597;SDS011;1813;52.016;8.714;2023-02-18T05:20:47;97.17;;;37.50;;
3597;SDS011;1813;52.016;8.714;2023-02-18T05:23:21;94.07;;;36.00;;
3597;SDS011;1813;52.016;8.714;2023-02-18T05:25:55;83.00;;;31.97;;
3597;SDS011;1813;52.016;8.714;2023-02-18T05:28:29;92.40;;;35.00;;
3597;SDS011;1813;52.016;8.714;2023-02-18T05:31:05;80.67;;;31.93;;
3597;SDS011;1813;52.016;8.714;2023-02-18T05:33:39;80.93;;;32.33;;
3597;SDS011;1813;52.016;8.714;2023-02-18T05:36:13;74.63;;;31.03;;
3597;SDS011;1813;52.016;8.714;2023-02-18T05:38:47;80.37;;;32.57;;
3597;SDS011;1813;52.016;8.714;2023-02-18T05:41:21;91.97;;;35.10;;
3597;SDS011;1813;52.016;8.714;2023-02-18T05:43:55;79.63;;;31.17;;
3597;SDS011;1813;52.016;8.714;2023-02-18T05:46:43;78.80;;;32.37;;
3597;SDS011;1813;52.016;8.714;2023-02-18T05:49:17;79.73;;;33.57;;
3597;SDS011;1813;52.016;8.714;2023-02-18T05:51:51;81.03;;;34.03;;
3597;SDS011;1813;52.016;8.714;2023-02-18T05:54:25;71.37;;;30.07;;
3597;SDS011;1813;52.016;8.714;2023-02-18T05:57:00;65.10;;;27.83;;
3597;SDS011;1813;52.016;8.714;2023-02-18T05:59:34;62.23;;;26.57;;
3597;SDS011;1813;52.016;8.714;2023-02-18T06:02:10;59.83;;;26.37;;
3597;SDS011;1813;52.016;8.714;2023-02-18T06:04:46;64.43;;;28.60;;
3597;SDS011;1813;52.016;8.714;2023-02-18T06:07:20;65.40;;;28.70;;
3597;SDS011;1813;52.016;8.714;2023-02-18T06:09:55;64.07;;;27.33;;
3597;SDS011;1813;52.016;8.714;2023-02-18T06:12:29;67.03;;;27.97;;
3597;SDS011;1813;52.016;8.714;2023-02-18T06:15:03;60.67;;;28.60;;
3597;SDS011;1813;52.016;8.714;2023-02-18T06:17:40;55.10;;;25.13;;
3597;SDS011;1813;52.016;8.714;2023-02-18T06:20:14;52.60;;;25.30;;
3597;SDS011;1813;52.016;8.714;2023-02-18T06:22:48;52.83;;;25.03;;
3597;SDS011;1813;52.016;8.714;2023-02-18T06:25:22;54.90;;;24.90;;
3597;SDS011;1813;52.016;8.714;2023-02-18T06:27:55;51.40;;;24.47;;
3597;SDS011;1813;52.016;8.714;2023-02-18T06:30:30;47.23;;;21.10;;
3597;SDS011;1813;52.016;8.714;2023-02-18T06:33:07;48.10;;;21.47;;
3597;SDS011;1813;52.016;8.714;2023-02-18T06:35:40;41.93;;;19.90;;
3597;SDS011;1813;52.016;8.714;2023-02-18T06:38:19;40.33;;;18.23;;
3597;SDS011;1813;52.016;8.714;2023-02-18T06:40:54;39.30;;;17.97;;
3597;SDS011;1813;52.016;8.714;2023-02-18T06:43:27;29.10;;;13.40;;
3597;SDS011;1813;52.016;8.714;2023-02-18T06:46:01;25.83;;;11.30;;
3597;SDS011;1813;52.016;8.714;2023-02-18T06:48:39;18.00;;;9.27;;
3597;SDS011;1813;52.016;8.714;2023-02-18T06:51:13;17.90;;;7.63;;
3597;SDS011;1813;52.016;8.714;2023-02-18T06:53:48;16.40;;;7.67;;
3597;SDS011;1813;52.016;8.714;2023-02-18T06:56:22;14.87;;;7.13;;
3597;SDS011;1813;52.016;8.714;2023-02-18T06:58:56;14.70;;;7.30;;
3597;SDS011;1813;52.016;8.714;2023-02-18T07:01:31;15.53;;;7.50;;
3597;SDS011;1813;52.016;8.714;2023-02-18T07:04:07;14.50;;;7.17;;
3597;SDS011;1813;52.016;8.714;2023-02-18T07:06:41;11.63;;;6.20;;
3597;SDS011;1813;52.016;8.714;2023-02-18T07:09:15;8.93;;;5.30;;
3597;SDS011;1813;52.016;8.714;2023-02-18T07:11:48;10.53;;;5.80;;
3597;SDS011;1813;52.016;8.714;2023-02-18T07:14:22;10.77;;;5.60;;
3597;SDS011;1813;52.016;8.714;2023-02-18T07:16:57;10.60;;;5.43;;
3597;SDS011;1813;52.016;8.714;2023-02-18T07:19:34;9.63;;;5.30;;
3597;SDS011;1813;52.016;8.714;2023-02-18T07:22:07;7.43;;;4.47;;
3597;SDS011;1813;52.016;8.714;2023-02-18T07:24:42;9.27;;;5.43;;
3597;SDS011;1813;52.016;8.714;2023-02-18T07:27:15;7.43;;;5.87;;
3597;SDS011;1813;52.016;8.714;2023-02-18T07:29:49;11.67;;;6.80;;
3597;SDS011;1813;52.016;8.714;2023-02-18T07:32:23;10.80;;;7.10;;
3597;SDS011;1813;52.016;8.714;2023-02-18T07:35:01;11.33;;;7.77;;
3597;SDS011;1813;52.016;8.714;2023-02-18T07:37:35;10.57;;;7.77;;
3597;SDS011;1813;52.016;8.714;2023-02-18T07:40:09;12.30;;;7.93;;
3597;SDS011;1813;52.016;8.714;2023-02-18T07:42:44;10.87;;;8.47;;
3597;SDS011;1813;52.016;8.714;2023-02-18T07:45:18;13.50;;;9.37;;
3597;SDS011;1813;52.016;8.714;2023-02-18T07:47:52;13.83;;;9.07;;
3597;SDS011;1813;52.016;8.714;2023-02-18T07:50:30;10.53;;;7.27;;
3597;SDS011;1813;52.016;8.714;2023-02-18T07:53:06;10.80;;;7.80;;
3597;SDS011;1813;52.016;8.714;2023-02-18T07:55:42;9.53;;;7.23;;
3597;SDS011;1813;52.016;8.714;2023-02-18T07:58:22;8.53;;;6.57;;
3597;SDS011;1813;52.016;8.714;2023-02-18T08:00:58;8.33;;;6.07;;
3597;SDS011;1813;52.016;8.714;2023-02-18T08:03:32;9.10;;;6.70;;
3597;SDS011;1813;52.016;8.714;2023-02-18T08:06:12;10.30;;;7.10;;
3597;SDS011;1813;52.016;8.714;2023-02-18T08:08:52;7.87;;;5.87;;
3597;SDS011;1813;52.016;8.714;2023-02-18T08:11:26;7.13;;;6.13;;
3597;SDS011;1813;52.016;8.714;2023-02-18T08:14:00;9.23;;;6.20;;
3597;SDS011;1813;52.016;8.714;2023-02-18T08:16:34;8.60;;;5.90;;
3597;SDS011;1813;52.016;8.714;2023-02-18T08:19:08;9.57;;;6.90;;
3597;SDS011;1813;52.016;8.714;2023-02-18T08:21:48;10.23;;;6.70;;
3597;SDS011;1813;52.016;8.714;2023-02-18T08:24:23;9.53;;;7.37;;
3597;SDS011;1813;52.016;8.714;2023-02-18T08:26:57;8.83;;;6.63;;
3597;SDS011;1813;52.016;8.714;2023-02-18T08:29:31;7.27;;;6.27;;
3597;SDS011;1813;52.016;8.714;2023-02-18T08:32:04;7.50;;;6.43;;
3597;SDS011;1813;52.016;8.714;2023-02-18T08:34:38;9.43;;;7.77;;
3597;SDS011;1813;52.016;8.714;2023-02-18T08:37:15;11.13;;;8.17;;
3597;SDS011;1813;52.016;8.714;2023-02-18T08:39:48;10.90;;;8.47;;
3597;SDS011;1813;52.016;8.714;2023-02-18T08:42:23;13.10;;;9.57;;
3597;SDS011;1813;52.016;8.714;2023-02-18T08:44:56;9.80;;;7.00;;
3597;SDS011;1813;52.016;8.714;2023-02-18T08:47:30;11.00;;;8.70;;
3597;SDS011;1813;52.016;8.714;2023-02-18T08:50:04;11.13;;;8.60;;
3597;SDS011;1813;52.016;8.714;2023-02-18T08:52:42;10.00;;;7.87;;
3597;SDS011;1813;52.016;8.714;2023-02-18T08:55:15;9.40;;;8.07;;
3597;SDS011;1813;52.016;8.714;2023-02-18T08:57:50;10.30;;;8.00;;
3597;SDS011;1813;52.016;8.714;2023-02-18T09:00:24;9.33;;;7.50;;
3597;SDS011;1813;52.016;8.714;2023-02-18T09:02:58;11.10;;;7.10;;
3597;SDS011;1813;52.016;8.714;2023-02-18T09:05:32;10.53;;;7.70;;
3597;SDS011;1813;52.016;8.714;2023-02-18T09:08:09;7.10;;;6.40;;
3597;SDS011;1813;52.016;8.714;2023-02-18T09:10:42;10.33;;;7.20;;
3597;SDS011;1813;52.016;8.714;2023-02-18T09:13:16;7.50;;;6.73;;
3597;SDS011;1813;52.016;8.714;2023-02-18T09:15:57;8.10;;;6.83;;
3597;SDS011;1813;52.016;8.714;2023-02-18T09:18:33;8.13;;;6.23;;
3597;SDS011;1813;52.016;8.714;2023-02-18T09:21:08;8.30;;;6.50;;
3597;SDS011;1813;52.016;8.714;2023-02-18T09:23:45;8.60;;;7.27;;
3597;SDS011;1813;52.016;8.714;2023-02-18T09:26:20;8.93;;;7.10;;
3597;SDS011;1813;52.016;8.714;2023-02-18T09:28:55;11.40;;;7.70;;
3597;SDS011;1813;52.016;8.714;2023-02-18T09:31:30;12.30;;;7.37;;
3597;SDS011;1813;52.016;8.714;2023-02-18T09:34:04;11.43;;;8.00;;
3597;SDS011;1813;52.016;8.714;2023-02-18T09:36:39;9.33;;;7.33;;
3597;SDS011;1813;52.016;8.714;2023-02-18T09:39:18;7.87;;;6.60;;
3597;SDS011;1813;52.016;8.714;2023-02-18T09:41:52;7.63;;;5.60;;
3597;SDS011;1813;52.016;8.714;2023-02-18T09:44:29;8.20;;;6.87;;
3597;SDS011;1813;52.016;8.714;2023-02-18T09:47:08;8.60;;;7.63;;
3597;SDS011;1813;52.016;8.714;2023-02-18T09:49:46;7.87;;;6.43;;
3597;SDS011;1813;52.016;8.714;2023-02-18T09:52:25;9.93;;;7.20;;
3597;SDS011;1813;52.016;8.714;2023-02-18T09:55:05;11.60;;;7.60;;
3597;SDS011;1813;52.016;8.714;2023-02-18T09:57:50;10.50;;;8.40;;
3597;SDS011;1813;52.016;8.714;2023-02-18T10:00:27;10.77;;;8.50;;
3597;SDS011;1813;52.016;8.714;2023-02-18T10:03:05;11.87;;;9.77;;
3597;SDS011;1813;52.016;8.714;2023-02-18T10:05:46;15.90;;;10.47;;
3597;SDS011;1813;52.016;8.714;2023-02-18T10:08:28;13.43;;;10.33;;
3597;SDS011;1813;52.016;8.714;2023-02-18T10:11:08;15.47;;;11.40;;
3597;SDS011;1813;52.016;8.714;2023-02-18T10:13:46;14.93;;;10.80;;
3597;SDS011;1813;52.016;8.714;2023-02-18T10:16:20;14.10;;;11.60;;
3597;SDS011;1813;52.016;8.714;2023-02-18T10:18:56;16.13;;;12.30;;
3597;SDS011;1813;52.016;8.714;2023-02-18T10:21:32;13.00;;;9.40;;
3597;SDS011;1813;52.016;8.714;2023-02-18T10:24:11;16.47;;;11.50;;
3597;SDS011;1813;52.016;8.714;2023-02-18T10:26:52;11.20;;;8.80;;
3597;SDS011;1813;52.016;8.714;2023-02-18T10:29:27;10.80;;;8.80;;
3597;SDS011;1813;52.016;8.714;2023-02-18T10:32:03;12.10;;;9.50;;
3597;SDS011;1813;52.016;8.714;2023-02-18T10:34:44;12.10;;;8.97;;
3597;SDS011;1813;52.016;8.714;2023-02-18T10:37:25;10.70;;;8.70;;
3597;SDS011;1813;52.016;8.714;2023-02-18T10:40:11;10.03;;;8.07;;
3597;SDS011;1813;52.016;8.714;2023-02-18T10:42:54;8.60;;;6.50;;
3597;SDS011;1813;52.016;8.714;2023-02-18T10:45:41;7.60;;;6.50;;
3597;SDS011;1813;52.016;8.714;2023-02-18T10:48:27;10.13;;;7.50;;
3597;SDS011;1813;52.016;8.714;2023-02-18T10:51:14;10.07;;;7.70;;
3597;SDS011;1813;52.016;8.714;2023-02-18T10:53:52;9.23;;;7.50;;
3597;SDS011;1813;52.016;8.714;2023-02-18T10:56:31;7.40;;;6.13;;
3597;SDS011;1813;52.016;8.714;2023-02-18T10:59:13;8.77;;;6.70;;
3597;SDS011;1813;52.016;8.714;2023-02-18T11:01:53;12.00;;;7.17;;
3597;SDS011;1813;52.016;8.714;2023-02-18T11:04:33;9.20;;;5.97;;
3597;SDS011;1813;52.016;8.714;2023-02-18T11:07:11;7.57;;;5.90;;
3597;SDS011;1813;52.016;8.714;2023-02-18T11:09:46;7.30;;;6.00;;
3597;SDS011;1813;52.016;8.714;2023-02-18T11:12:23;10.90;;;7.50;;
3597;SDS011;1813;52.016;8.714;2023-02-18T11:15:07;12.30;;;6.70;;
3597;SDS011;1813;52.016;8.714;2023-02-18T11:17:50;10.50;;;6.20;;
3597;SDS011;1813;52.016;8.714;2023-02-18T11:20:28;10.97;;;6.73;;
3597;SDS011;1813;52.016;8.714;2023-02-18T11:23:17;10.57;;;6.73;;
3597;SDS011;1813;52.016;8.714;2023-02-18T11:25:55;9.07;;;6.50;;
3597;SDS011;1813;52.016;8.714;2023-02-18T11:28:38;9.57;;;6.47;;
3597;SDS011;1813;52.016;8.714;2023-02-18T11:31:21;12.30;;;7.50;;
3597;SDS011;1813;52.016;8.714;2023-02-18T11:33:59;9.13;;;7.30;;
3597;SDS011;1813;52.016;8.714;2023-02-18T11:36:34;16.50;;;7.97;;
3597;SDS011;1813;52.016;8.714;2023-02-18T11:39:14;11.80;;;7.37;;
3597;SDS011;1813;52.016;8.714;2023-02-18T11:41:53;10.00;;;7.50;;
3597;SDS011;1813;52.016;8.714;2023-02-18T11:44:30;11.43;;;7.67;;
3597;SDS011;1813;52.016;8.714;2023-02-18T11:47:19;11.00;;;7.83;;
3597;SDS011;1813;52.016;8.714;2023-02-18T11:49:59;8.37;;;6.20;;
3597;SDS011;1813;52.016;8.714;2023-02-18T11:52:51;10.50;;;6.57;;
3597;SDS011;1813;52.016;8.714;2023-02-18T11:55:28;11.07;;;7.10;;
3597;SDS011;1813;52.016;8.714;2023-02-18T11:58:08;13.40;;;8.00;;
3597;SDS011;1813;52.016;8.714;2023-02-18T12:00:46;8.90;;;6.33;;
3597;SDS011;1813;52.016;8.714;2023-02-18T12:03:29;8.33;;;5.83;;
3597;SDS011;1813;52.016;8.714;2023-02-18T12:06:13;11.33;;;7.27;;
3597;SDS011;1813;52.016;8.714;2023-02-18T12:08:54;9.23;;;7.37;;
3597;SDS011;1813;52.016;8.714;2023-02-18T12:11:33;8.70;;;5.93;;
3597;SDS011;1813;52.016;8.714;2023-02-18T12:14:13;9.33;;;7.83;;
3597;SDS011;1813;52.016;8.714;2023-02-18T12:20:02;8.67;;;5.60;;
3597;SDS011;1813;52.016;8.714;2023-02-18T12:23:12;9.40;;;6.70;;
3597;SDS011;1813;52.016;8.714;2023-02-18T12:25:55;8.90;;;6.27;;
3597;SDS011;1813;52.016;8.714;2023-02-18T12:28:42;6.63;;;5.17;;
3597;SDS011;1813;52.016;8.714;2023-02-18T12:34:41;6.07;;;5.10;;
3597;SDS011;1813;52.016;8.714;2023-02-18T12:43:31;7.17;;;5.40;;
3597;SDS011;1813;52.016;8.714;2023-02-18T12:46:20;7.57;;;5.10;;
3597;SDS011;1813;52.016;8.714;2023-02-18T12:49:02;6.23;;;4.20;;
3597;SDS011;1813;52.016;8.714;2023-02-18T12:51:59;6.60;;;5.47;;
3597;SDS011;1813;52.016;8.714;2023-02-18T12:54:55;7.80;;;5.40;;
3597;SDS011;1813;52.016;8.714;2023-02-18T12:57:50;6.57;;;4.90;;
3597;SDS011;1813;52.016;8.714;2023-02-18T13:00:38;8.50;;;5.93;;
3597;SDS011;1813;52.016;8.714;2023-02-18T13:03:38;7.50;;;5.00;;
3597;SDS011;1813;52.016;8.714;2023-02-18T13:09:46;6.60;;;4.93;;
3597;SDS011;1813;52.016;8.714;2023-02-18T13:12:36;9.37;;;6.10;;
3597;SDS011;1813;52.016;8.714;2023-02-18T13:15:16;8.77;;;5.90;;
3597;SDS011;1813;52.016;8.714;2023-02-18T13:17:54;6.83;;;5.80;;
3597;SDS011;1813;52.016;8.714;2023-02-18T13:20:34;8.37;;;6.27;;
3597;SDS011;1813;52.016;8.714;2023-02-18T13:23:15;12.60;;;6.10;;
3597;SDS011;1813;52.016;8.714;2023-02-18T13:25:55;6.40;;;5.30;;
3597;SDS011;1813;52.016;8.714;2023-02-18T13:28:33;9.60;;;6.43;;
3597;SDS011;1813;52.016;8.714;2023-02-18T13:31:21;7.80;;;5.07;;
3597;SDS011;1813;52.016;8.714;2023-02-18T13:34:03;8.60;;;5.73;;
3597;SDS011;1813;52.016;8.714;2023-02-18T13:36:48;9.13;;;6.00;;
3597;SDS011;1813;52.016;8.714;2023-02-18T13:39:28;9.63;;;6.83;;
3597;SDS011;1813;52.016;8.714;2023-02-18T13:48:03;7.33;;;5.50;;
3597;SDS011;1813;52.016;8.714;2023-02-18T13:50:59;6.87;;;5.50;;
3597;SDS011;1813;52.016;8.714;2023-02-18T13:53:35;8.07;;;6.17;;
3597;SDS011;1813;52.016;8.714;2023-02-18T13:56:18;6.60;;;5.80;;
3597;SDS011;1813;52.016;8.714;2023-02-18T13:59:07;10.07;;;6.60;;
3597;SDS011;1813;52.016;8.714;2023-02-18T14:01:44;9.97;;;6.90;;
3597;SDS011;1813;52.016;8.714;2023-02-18T14:07:22;11.07;;;8.17;;
3597;SDS011;1813;52.016;8.714;2023-02-18T14:10:23;16.70;;;8.80;;
3597;SDS011;1813;52.016;8.714;2023-02-18T14:16:01;22.00;;;8.83;;
3597;SDS011;1813;52.016;8.714;2023-02-18T14:21:38;11.83;;;7.20;;
3597;SDS011;1813;52.016;8.714;2023-02-18T14:24:14;15.30;;;8.30;;
3597;SDS011;1813;52.016;8.714;2023-02-18T14:27:20;13.70;;;8.50;;
3597;SDS011;1813;52.016;8.714;2023-02-18T14:30:00;11.20;;;7.20;;
3597;SDS011;1813;52.016;8.714;2023-02-18T14:32:40;8.70;;;6.77;;
3597;SDS011;1813;52.016;8.714;2023-02-18T14:35:21;9.80;;;6.60;;
3597;SDS011;1813;52.016;8.714;2023-02-18T14:38:15;9.93;;;6.70;;
3597;SDS011;1813;52.016;8.714;2023-02-18T14:41:11;10.67;;;7.23;;
3597;SDS011;1813;52.016;8.714;2023-02-18T14:44:11;9.70;;;7.00;;
3597;SDS011;1813;52.016;8.714;2023-02-18T14:47:04;9.47;;;6.43;;
3597;SDS011;1813;52.016;8.714;2023-02-18T14:49:50;15.17;;;8.73;;
3597;SDS011;1813;52.016;8.714;2023-02-18T14:52:29;11.47;;;7.70;;
3597;SDS011;1813;52.016;8.714;2023-02-18T14:55:07;11.77;;;7.67;;
3597;SDS011;1813;52.016;8.714;2023-02-18T14:57:50;12.97;;;8.03;;
3597;SDS011;1813;52.016;8.714;2023-02-18T15:00:29;17.23;;;8.33;;
3597;SDS011;1813;52.016;8.714;2023-02-18T15:03:08;13.53;;;7.30;;
3597;SDS011;1813;52.016;8.714;2023-02-18T15:05:49;10.27;;;7.53;;
3597;SDS011;1813;52.016;8.714;2023-02-18T15:08:24;12.73;;;7.87;;
3597;SDS011;1813;52.016;8.714;2023-02-18T15:11:09;11.70;;;7.40;;
3597;SDS011;1813;52.016;8.714;2023-02-18T15:13:44;12.20;;;7.70;;
3597;SDS011;1813;52.016;8.714;2023-02-18T15:16:21;14.77;;;8.43;;
3597;SDS011;1813;52.016;8.714;2023-02-18T15:19:02;10.27;;;6.80;;
3597;SDS011;1813;52.016;8.714;2023-02-18T15:21:41;10.13;;;6.20;;
3597;SDS011;1813;52.016;8.714;2023-02-18T15:24:20;12.37;;;7.33;;
3597;SDS011;1813;52.016;8.714;2023-02-18T15:26:58;10.17;;;6.90;;
3597;SDS011;1813;52.016;8.714;2023-02-18T15:29:34;9.87;;;7.00;;
3597;SDS011;1813;52.016;8.714;2023-02-18T15:32:15;9.57;;;6.10;;
3597;SDS011;1813;52.016;8.714;2023-02-18T15:34:50;9.30;;;6.40;;
3597;SDS011;1813;52.016;8.714;2023-02-18T15:37:33;8.80;;;5.73;;
3597;SDS011;1813;52.016;8.714;2023-02-18T15:40:11;13.70;;;7.07;;
3597;SDS011;1813;52.016;8.714;2023-02-18T15:42:46;9.63;;;6.07;;
3597;SDS011;1813;52.016;8.714;2023-02-18T15:45:23;9.30;;;5.97;;
3597;SDS011;1813;52.016;8.714;2023-02-18T15:48:04;9.50;;;6.17;;
3597;SDS011;1813;52.016;8.714;2023-02-18T15:50:44;11.43;;;7.03;;
3597;SDS011;1813;52.016;8.714;2023-02-18T15:53:26;12.80;;;6.40;;
3597;SDS011;1813;52.016;8.714;2023-02-18T15:56:04;11.70;;;6.73;;
3597;SDS011;1813;52.016;8.714;2023-02-18T15:58:42;11.90;;;7.13;;
3597;SDS011;1813;52.016;8.714;2023-02-18T16:01:24;11.33;;;6.30;;
3597;SDS011;1813;52.016;8.714;2023-02-18T16:03:59;14.47;;;7.30;;
3597;SDS011;1813;52.016;8.714;2023-02-18T16:06:34;14.17;;;7.70;;
3597;SDS011;1813;52.016;8.714;2023-02-18T16:09:15;16.63;;;7.57;;
3597;SDS011;1813;52.016;8.714;2023-02-18T16:11:53;12.10;;;7.93;;
3597;SDS011;1813;52.016;8.714;2023-02-18T16:14:30;15.73;;;7.90;;
3597;SDS011;1813;52.016;8.714;2023-02-18T16:17:07;14.07;;;7.43;;
3597;SDS011;1813;52.016;8.714;2023-02-18T16:19:48;15.17;;;7.93;;
3597;SDS011;1813;52.016;8.714;2023-02-18T16:22:25;12.37;;;7.07;;
3597;SDS011;1813;52.016;8.714;2023-02-18T16:25:14;14.10;;;7.80;;
3597;SDS011;1813;52.016;8.714;2023-02-18T16:27:50;11.00;;;7.60;;
3597;SDS011;1813;52.016;8.714;2023-02-18T16:30:27;18.73;;;7.97;;
3597;SDS011;1813;52.016;8.714;2023-02-18T16:33:02;15.03;;;8.00;;
3597;SDS011;1813;52.016;8.714;2023-02-18T16:35:36;19.77;;;7.67;;
3597;SDS011;1813;52.016;8.714;2023-02-18T16:38:10;16.40;;;7.93;;
3597;SDS011;1813;52.016;8.714;2023-02-18T16:40:51;13.67;;;7.87;;
3597;SDS011;1813;52.016;8.714;2023-02-18T16:43:27;14.13;;;7.80;;
3597;SDS011;1813;52.016;8.714;2023-02-18T16:46:04;17.10;;;7.50;;
3597;SDS011;1813;52.016;8.714;2023-02-18T16:48:40;14.53;;;7.73;;